sensor_id;sensor_type;location;lat;lon;timestamp;temperature;humidity
67555;HTU21D;54385;53.516;49.456;2023-04-27T00:00:40;11.66;69.10
67555;HTU21D;54385;53.516;49.456;2023-04-27T00:03:07;11.62;69.16
67555;HTU21D;54385;53.516;49.456;2023-04-27T00:05:35;11.59;69.24
67555;HTU21D;54385;53.516;49.456;2023-04-27T00:08:05;11.56;69.34
67555;HTU21D;54385;53.516;49.456;2023-04-27T00:10:32;11.53;69.32
67555;HTU21D;54385;53.516;49.456;2023-04-27T00:12:59;11.55;69.28
67555;HTU21D;54385;53.516;49.456;2023-04-27T00:15:27;11.53;69.33
67555;HTU21D;54385;53.516;49.456;2023-04-27T00:17:54;11.51;69.47
67555;HTU21D;54385;53.516;49.456;2023-04-27T00:20:22;11.52;69.47
67555;HTU21D;54385;53.516;49.456;2023-04-27T00:22:49;11.52;69.52
67555;HTU21D;54385;53.516;49.456;2023-04-27T00:25:16;11.49;69.46
67555;HTU21D;54385;53.516;49.456;2023-04-27T00:27:43;11.49;69.36
67555;HTU21D;54385;53.516;49.456;2023-04-27T00:30:09;11.47;69.47
67555;HTU21D;54385;53.516;49.456;2023-04-27T00:32:36;11.46;69.66
67555;HTU21D;54385;53.516;49.456;2023-04-27T00:35:03;11.49;69.61
67555;HTU21D;54385;53.516;49.456;2023-04-27T00:37:30;11.56;69.34
67555;HTU21D;54385;53.516;49.456;2023-04-27T00:39:57;11.56;69.40
67555;HTU21D;54385;53.516;49.456;2023-04-27T00:42:24;11.63;69.30
67555;HTU21D;54385;53.516;49.456;2023-04-27T00:44:51;11.71;68.91
67555;HTU21D;54385;53.516;49.456;2023-04-27T00:47:18;11.77;68.46
67555;HTU21D;54385;53.516;49.456;2023-04-27T00:49:44;11.81;68.40
67555;HTU21D;54385;53.516;49.456;2023-04-27T00:52:11;11.79;68.61
67555;HTU21D;54385;53.516;49.456;2023-04-27T00:54:37;11.84;68.39
67555;HTU21D;54385;53.516;49.456;2023-04-27T00:57:04;11.86;68.23
67555;HTU21D;54385;53.516;49.456;2023-04-27T00:59:30;11.89;68.26
67555;HTU21D;54385;53.516;49.456;2023-04-27T01:01:57;11.90;68.23
67555;HTU21D;54385;53.516;49.456;2023-04-27T01:04:23;11.88;68.19
67555;HTU21D;54385;53.516;49.456;2023-04-27T01:06:49;11.90;68.17
67555;HTU21D;54385;53.516;49.456;2023-04-27T01:09:16;11.90;68.27
67555;HTU21D;54385;53.516;49.456;2023-04-27T01:11:47;11.87;68.15
67555;HTU21D;54385;53.516;49.456;2023-04-27T01:14:14;11.86;68.27
67555;HTU21D;54385;53.516;49.456;2023-04-27T01:16:42;11.83;68.24
67555;HTU21D;54385;53.516;49.456;2023-04-27T01:19:09;11.88;68.00
67555;HTU21D;54385;53.516;49.456;2023-04-27T01:21:35;11.87;68.08
67555;HTU21D;54385;53.516;49.456;2023-04-27T01:24:06;11.84;68.21
67555;HTU21D;54385;53.516;49.456;2023-04-27T01:26:33;11.78;68.55
67555;HTU21D;54385;53.516;49.456;2023-04-27T01:29:00;11.77;68.31
67555;HTU21D;54385;53.516;49.456;2023-04-27T01:31:26;11.72;68.55
67555;HTU21D;54385;53.516;49.456;2023-04-27T01:33:52;11.72;68.54
67555;HTU21D;54385;53.516;49.456;2023-04-27T01:36:18;11.69;68.84
67555;HTU21D;54385;53.516;49.456;2023-04-27T01:38:45;11.68;68.83
67555;HTU21D;54385;53.516;49.456;2023-04-27T01:41:11;11.70;68.64
67555;HTU21D;54385;53.516;49.456;2023-04-27T01:43:37;11.74;68.46
67555;HTU21D;54385;53.516;49.456;2023-04-27T01:46:04;11.73;68.74
67555;HTU21D;54385;53.516;49.456;2023-04-27T01:48:32;11.72;68.73
67555;HTU21D;54385;53.516;49.456;2023-04-27T01:50:58;11.74;68.56
67555;HTU21D;54385;53.516;49.456;2023-04-27T01:53:24;11.72;68.81
67555;HTU21D;54385;53.516;49.456;2023-04-27T01:55:51;11.70;68.85
67555;HTU21D;54385;53.516;49.456;2023-04-27T01:58:17;11.66;69.16
67555;HTU21D;54385;53.516;49.456;2023-04-27T02:00:43;11.68;68.88
67555;HTU21D;54385;53.516;49.456;2023-04-27T02:03:10;11.68;69.18
67555;HTU21D;54385;53.516;49.456;2023-04-27T02:05:37;11.73;68.68
67555;HTU21D;54385;53.516;49.456;2023-04-27T02:08:04;11.77;68.68
67555;HTU21D;54385;53.516;49.456;2023-04-27T02:10:30;11.84;68.20
67555;HTU21D;54385;53.516;49.456;2023-04-27T02:12:56;11.88;68.09
67555;HTU21D;54385;53.516;49.456;2023-04-27T02:15:23;11.93;67.93
67555;HTU21D;54385;53.516;49.456;2023-04-27T02:17:49;12.01;67.33
67555;HTU21D;54385;53.516;49.456;2023-04-27T02:20:16;12.08;67.04
67555;HTU21D;54385;53.516;49.456;2023-04-27T02:22:43;12.14;66.91
67555;HTU21D;54385;53.516;49.456;2023-04-27T02:25:10;12.18;66.87
67555;HTU21D;54385;53.516;49.456;2023-04-27T02:27:38;12.27;66.27
67555;HTU21D;54385;53.516;49.456;2023-04-27T02:30:07;12.35;66.23
67555;HTU21D;54385;53.516;49.456;2023-04-27T02:32:34;12.45;66.07
67555;HTU21D;54385;53.516;49.456;2023-04-27T02:35:01;12.50;65.59
67555;HTU21D;54385;53.516;49.456;2023-04-27T02:37:28;12.55;65.56
67555;HTU21D;54385;53.516;49.456;2023-04-27T02:39:55;12.57;65.91
67555;HTU21D;54385;53.516;49.456;2023-04-27T02:42:21;12.58;66.35
67555;HTU21D;54385;53.516;49.456;2023-04-27T02:44:48;12.57;66.84
67555;HTU21D;54385;53.516;49.456;2023-04-27T02:47:14;12.49;67.26
67555;HTU21D;54385;53.516;49.456;2023-04-27T02:49:41;12.45;67.71
67555;HTU21D;54385;53.516;49.456;2023-04-27T02:52:08;12.44;67.65
67555;HTU21D;54385;53.516;49.456;2023-04-27T02:54:35;12.47;67.61
67555;HTU21D;54385;53.516;49.456;2023-04-27T02:57:02;12.47;67.78
67555;HTU21D;54385;53.516;49.456;2023-04-27T02:59:28;12.46;67.73
67555;HTU21D;54385;53.516;49.456;2023-04-27T03:01:55;12.52;67.53
67555;HTU21D;54385;53.516;49.456;2023-04-27T03:04:22;12.60;67.15
67555;HTU21D;54385;53.516;49.456;2023-04-27T03:06:49;12.73;66.78
67555;HTU21D;54385;53.516;49.456;2023-04-27T03:09:16;12.80;66.49
67555;HTU21D;54385;53.516;49.456;2023-04-27T03:11:43;12.82;66.46
67555;HTU21D;54385;53.516;49.456;2023-04-27T03:14:09;12.86;66.13
67555;HTU21D;54385;53.516;49.456;2023-04-27T03:16:38;12.94;65.98
67555;HTU21D;54385;53.516;49.456;2023-04-27T03:19:04;13.01;65.39
67555;HTU21D;54385;53.516;49.456;2023-04-27T03:21:31;13.12;64.37
67555;HTU21D;54385;53.516;49.456;2023-04-27T03:23:58;13.21;64.32
67555;HTU21D;54385;53.516;49.456;2023-04-27T03:26:25;13.31;63.34
67555;HTU21D;54385;53.516;49.456;2023-04-27T03:28:51;13.43;63.52
67555;HTU21D;54385;53.516;49.456;2023-04-27T03:31:18;13.55;62.68
67555;HTU21D;54385;53.516;49.456;2023-04-27T03:33:45;13.63;62.46
67555;HTU21D;54385;53.516;49.456;2023-04-27T03:36:12;13.76;62.13
67555;HTU21D;54385;53.516;49.456;2023-04-27T03:38:39;13.80;61.87
67555;HTU21D;54385;53.516;49.456;2023-04-27T03:41:05;13.83;61.81
67555;HTU21D;54385;53.516;49.456;2023-04-27T03:43:32;13.81;61.46
67555;HTU21D;54385;53.516;49.456;2023-04-27T03:45:59;13.83;61.41
67555;HTU21D;54385;53.516;49.456;2023-04-27T03:48:26;13.92;61.21
67555;HTU21D;54385;53.516;49.456;2023-04-27T03:50:53;14.04;59.99
67555;HTU21D;54385;53.516;49.456;2023-04-27T03:53:19;14.11;60.21
67555;HTU21D;54385;53.516;49.456;2023-04-27T03:55:52;14.17;60.20
67555;HTU21D;54385;53.516;49.456;2023-04-27T03:58:19;14.22;59.59
67555;HTU21D;54385;53.516;49.456;2023-04-27T04:00:46;14.26;59.04
67555;HTU21D;54385;53.516;49.456;2023-04-27T04:03:12;14.35;58.94
67555;HTU21D;54385;53.516;49.456;2023-04-27T04:05:39;14.40;58.56
67555;HTU21D;54385;53.516;49.456;2023-04-27T04:08:06;14.50;58.25
67555;HTU21D;54385;53.516;49.456;2023-04-27T04:10:33;14.60;57.58
67555;HTU21D;54385;53.516;49.456;2023-04-27T04:12:59;14.77;57.45
67555;HTU21D;54385;53.516;49.456;2023-04-27T04:15:26;14.85;56.52
67555;HTU21D;54385;53.516;49.456;2023-04-27T04:17:53;14.93;57.41
67555;HTU21D;54385;53.516;49.456;2023-04-27T04:20:20;14.92;56.64
67555;HTU21D;54385;53.516;49.456;2023-04-27T04:22:49;14.98;56.12
67555;HTU21D;54385;53.516;49.456;2023-04-27T04:25:16;15.04;56.38
67555;HTU21D;54385;53.516;49.456;2023-04-27T04:27:43;15.13;56.42
67555;HTU21D;54385;53.516;49.456;2023-04-27T04:30:10;15.23;56.06
67555;HTU21D;54385;53.516;49.456;2023-04-27T04:32:38;15.31;55.30
67555;HTU21D;54385;53.516;49.456;2023-04-27T04:35:05;15.38;55.17
67555;HTU21D;54385;53.516;49.456;2023-04-27T04:37:33;15.48;55.12
67555;HTU21D;54385;53.516;49.456;2023-04-27T04:40:04;15.54;55.03
67555;HTU21D;54385;53.516;49.456;2023-04-27T04:42:35;15.57;54.63
67555;HTU21D;54385;53.516;49.456;2023-04-27T04:45:05;15.62;54.68
67555;HTU21D;54385;53.516;49.456;2023-04-27T04:47:32;15.71;53.72
67555;HTU21D;54385;53.516;49.456;2023-04-27T04:50:02;15.81;53.56
67555;HTU21D;54385;53.516;49.456;2023-04-27T04:52:32;15.85;53.77
67555;HTU21D;54385;53.516;49.456;2023-04-27T04:54:59;15.98;53.58
67555;HTU21D;54385;53.516;49.456;2023-04-27T04:57:25;16.04;52.07
67555;HTU21D;54385;53.516;49.456;2023-04-27T04:59:52;16.10;51.95
67555;HTU21D;54385;53.516;49.456;2023-04-27T05:02:18;16.20;51.35
67555;HTU21D;54385;53.516;49.456;2023-04-27T05:04:45;16.29;51.05
67555;HTU21D;54385;53.516;49.456;2023-04-27T05:07:12;16.36;50.32
67555;HTU21D;54385;53.516;49.456;2023-04-27T05:09:39;16.35;50.40
67555;HTU21D;54385;53.516;49.456;2023-04-27T05:12:06;16.41;50.57
67555;HTU21D;54385;53.516;49.456;2023-04-27T05:14:33;16.49;50.94
67555;HTU21D;54385;53.516;49.456;2023-04-27T05:17:00;16.62;50.71
67555;HTU21D;54385;53.516;49.456;2023-04-27T05:19:30;16.76;50.38
67555;HTU21D;54385;53.516;49.456;2023-04-27T05:21:57;16.86;49.80
67555;HTU21D;54385;53.516;49.456;2023-04-27T05:24:25;16.90;49.93
67555;HTU21D;54385;53.516;49.456;2023-04-27T05:26:51;17.00;49.50
67555;HTU21D;54385;53.516;49.456;2023-04-27T05:29:18;17.07;48.98
67555;HTU21D;54385;53.516;49.456;2023-04-27T05:31:44;17.03;49.34
67555;HTU21D;54385;53.516;49.456;2023-04-27T05:34:11;17.06;49.50
67555;HTU21D;54385;53.516;49.456;2023-04-27T05:36:38;17.13;48.67
67555;HTU21D;54385;53.516;49.456;2023-04-27T05:39:05;17.18;49.47
67555;HTU21D;54385;53.516;49.456;2023-04-27T05:41:32;17.30;48.91
67555;HTU21D;54385;53.516;49.456;2023-04-27T05:43:58;17.34;47.90
67555;HTU21D;54385;53.516;49.456;2023-04-27T05:46:25;17.38;48.40
67555;HTU21D;54385;53.516;49.456;2023-04-27T05:48:51;17.46;48.36
67555;HTU21D;54385;53.516;49.456;2023-04-27T05:51:18;17.53;47.47
67555;HTU21D;54385;53.516;49.456;2023-04-27T05:53:44;17.69;48.28
67555;HTU21D;54385;53.516;49.456;2023-04-27T05:56:11;17.85;47.31
67555;HTU21D;54385;53.516;49.456;2023-04-27T05:58:38;17.93;47.91
67555;HTU21D;54385;53.516;49.456;2023-04-27T06:01:04;17.99;47.51
67555;HTU21D;54385;53.516;49.456;2023-04-27T06:03:31;18.06;46.19
67555;HTU21D;54385;53.516;49.456;2023-04-27T06:05:59;18.11;46.60
67555;HTU21D;54385;53.516;49.456;2023-04-27T06:08:27;18.19;46.76
67555;HTU21D;54385;53.516;49.456;2023-04-27T06:10:54;18.26;46.74
67555;HTU21D;54385;53.516;49.456;2023-04-27T06:13:21;18.33;46.01
67555;HTU21D;54385;53.516;49.456;2023-04-27T06:15:48;18.34;45.89
67555;HTU21D;54385;53.516;49.456;2023-04-27T06:18:15;18.36;45.49
67555;HTU21D;54385;53.516;49.456;2023-04-27T06:20:43;18.39;45.65
67555;HTU21D;54385;53.516;49.456;2023-04-27T06:23:10;18.53;45.87
67555;HTU21D;54385;53.516;49.456;2023-04-27T06:25:41;18.56;44.96
67555;HTU21D;54385;53.516;49.456;2023-04-27T06:28:07;18.68;45.35
67555;HTU21D;54385;53.516;49.456;2023-04-27T06:30:34;18.76;46.44
67555;HTU21D;54385;53.516;49.456;2023-04-27T06:33:00;18.79;45.44
67555;HTU21D;54385;53.516;49.456;2023-04-27T06:35:27;18.82;45.09
67555;HTU21D;54385;53.516;49.456;2023-04-27T06:37:53;18.89;44.94
67555;HTU21D;54385;53.516;49.456;2023-04-27T06:40:24;19.09;44.93
67555;HTU21D;54385;53.516;49.456;2023-04-27T06:42:51;19.22;44.33
67555;HTU21D;54385;53.516;49.456;2023-04-27T06:45:18;19.22;43.98
67555;HTU21D;54385;53.516;49.456;2023-04-27T06:47:44;19.21;44.60
67555;HTU21D;54385;53.516;49.456;2023-04-27T06:50:12;19.08;44.31
67555;HTU21D;54385;53.516;49.456;2023-04-27T06:52:39;19.17;44.16
67555;HTU21D;54385;53.516;49.456;2023-04-27T06:55:07;19.32;45.06
67555;HTU21D;54385;53.516;49.456;2023-04-27T06:57:34;19.46;45.11
67555;HTU21D;54385;53.516;49.456;2023-04-27T07:00:02;19.44;44.35
67555;HTU21D;54385;53.516;49.456;2023-04-27T07:02:30;19.46;43.98
67555;HTU21D;54385;53.516;49.456;2023-04-27T07:04:57;19.39;44.37
67555;HTU21D;54385;53.516;49.456;2023-04-27T07:07:27;19.50;44.66
67555;HTU21D;54385;53.516;49.456;2023-04-27T07:09:54;19.61;43.96
67555;HTU21D;54385;53.516;49.456;2023-04-27T07:12:21;19.74;43.54
67555;HTU21D;54385;53.516;49.456;2023-04-27T07:14:48;19.77;43.47
67555;HTU21D;54385;53.516;49.456;2023-04-27T07:17:18;19.86;43.35
67555;HTU21D;54385;53.516;49.456;2023-04-27T07:19:45;20.01;42.91
67555;HTU21D;54385;53.516;49.456;2023-04-27T07:22:12;20.15;42.79
67555;HTU21D;54385;53.516;49.456;2023-04-27T07:24:38;20.10;42.74
67555;HTU21D;54385;53.516;49.456;2023-04-27T07:27:05;20.14;42.65
67555;HTU21D;54385;53.516;49.456;2023-04-27T07:29:32;20.20;42.20
67555;HTU21D;54385;53.516;49.456;2023-04-27T07:31:59;20.24;42.35
67555;HTU21D;54385;53.516;49.456;2023-04-27T07:34:26;20.22;41.77
67555;HTU21D;54385;53.516;49.456;2023-04-27T07:36:57;20.31;41.96
67555;HTU21D;54385;53.516;49.456;2023-04-27T07:39:24;20.39;42.37
67555;HTU21D;54385;53.516;49.456;2023-04-27T07:41:52;20.45;41.93
67555;HTU21D;54385;53.516;49.456;2023-04-27T07:44:19;20.47;41.98
67555;HTU21D;54385;53.516;49.456;2023-04-27T07:46:47;20.57;41.90
67555;HTU21D;54385;53.516;49.456;2023-04-27T07:49:15;20.53;41.40
67555;HTU21D;54385;53.516;49.456;2023-04-27T07:51:41;20.54;41.84
67555;HTU21D;54385;53.516;49.456;2023-04-27T07:54:08;20.49;41.82
67555;HTU21D;54385;53.516;49.456;2023-04-27T07:56:35;20.31;41.62
67555;HTU21D;54385;53.516;49.456;2023-04-27T07:59:02;20.26;42.26
67555;HTU21D;54385;53.516;49.456;2023-04-27T08:01:28;20.37;42.23
67555;HTU21D;54385;53.516;49.456;2023-04-27T08:03:55;20.53;41.73
67555;HTU21D;54385;53.516;49.456;2023-04-27T08:06:24;20.72;41.53
67555;HTU21D;54385;53.516;49.456;2023-04-27T08:08:51;20.96;40.26
67555;HTU21D;54385;53.516;49.456;2023-04-27T08:11:18;21.06;39.36
67555;HTU21D;54385;53.516;49.456;2023-04-27T08:13:47;21.23;40.39
67555;HTU21D;54385;53.516;49.456;2023-04-27T08:16:14;21.27;39.26
67555;HTU21D;54385;53.516;49.456;2023-04-27T08:18:43;21.34;39.31
67555;HTU21D;54385;53.516;49.456;2023-04-27T08:21:09;21.48;39.28
67555;HTU21D;54385;53.516;49.456;2023-04-27T08:23:36;21.51;38.91
67555;HTU21D;54385;53.516;49.456;2023-04-27T08:26:04;21.59;38.69
67555;HTU21D;54385;53.516;49.456;2023-04-27T08:28:31;21.57;37.82
67555;HTU21D;54385;53.516;49.456;2023-04-27T08:30:57;21.58;38.18
67555;HTU21D;54385;53.516;49.456;2023-04-27T08:33:24;21.67;38.03
67555;HTU21D;54385;53.516;49.456;2023-04-27T08:35:54;21.57;37.44
67555;HTU21D;54385;53.516;49.456;2023-04-27T08:38:21;21.50;37.87
67555;HTU21D;54385;53.516;49.456;2023-04-27T08:40:47;21.49;38.50
67555;HTU21D;54385;53.516;49.456;2023-04-27T08:43:14;21.48;38.00
67555;HTU21D;54385;53.516;49.456;2023-04-27T08:45:47;21.43;37.65
67555;HTU21D;54385;53.516;49.456;2023-04-27T08:48:15;21.53;37.58
67555;HTU21D;54385;53.516;49.456;2023-04-27T08:50:43;21.54;37.04
67555;HTU21D;54385;53.516;49.456;2023-04-27T08:53:19;21.60;37.07
67555;HTU21D;54385;53.516;49.456;2023-04-27T08:55:49;21.80;37.52
67555;HTU21D;54385;53.516;49.456;2023-04-27T08:58:16;21.98;36.51
67555;HTU21D;54385;53.516;49.456;2023-04-27T09:00:43;22.01;35.47
67555;HTU21D;54385;53.516;49.456;2023-04-27T09:03:25;22.07;34.97
67555;HTU21D;54385;53.516;49.456;2023-04-27T09:05:52;22.22;36.38
67555;HTU21D;54385;53.516;49.456;2023-04-27T09:08:22;22.29;36.78
67555;HTU21D;54385;53.516;49.456;2023-04-27T09:10:51;22.21;36.18
67555;HTU21D;54385;53.516;49.456;2023-04-27T09:13:20;21.89;36.51
67555;HTU21D;54385;53.516;49.456;2023-04-27T09:15:48;21.81;36.66
67555;HTU21D;54385;53.516;49.456;2023-04-27T09:18:20;21.85;37.24
67555;HTU21D;54385;53.516;49.456;2023-04-27T09:20:49;21.92;37.33
67555;HTU21D;54385;53.516;49.456;2023-04-27T09:25:56;22.08;36.46
67555;HTU21D;54385;53.516;49.456;2023-04-27T09:28:25;22.42;36.24
67555;HTU21D;54385;53.516;49.456;2023-04-27T09:30:56;22.66;34.46
67555;HTU21D;54385;53.516;49.456;2023-04-27T09:33:35;22.76;33.75
67555;HTU21D;54385;53.516;49.456;2023-04-27T09:36:05;22.85;33.70
67555;HTU21D;54385;53.516;49.456;2023-04-27T09:38:32;23.06;32.91
67555;HTU21D;54385;53.516;49.456;2023-04-27T09:41:03;23.24;32.28
67555;HTU21D;54385;53.516;49.456;2023-04-27T09:43:41;23.11;32.87
67555;HTU21D;54385;53.516;49.456;2023-04-27T09:46:09;22.94;32.97
67555;HTU21D;54385;53.516;49.456;2023-04-27T09:48:38;22.83;33.31
67555;HTU21D;54385;53.516;49.456;2023-04-27T09:51:06;22.90;32.69
67555;HTU21D;54385;53.516;49.456;2023-04-27T09:53:34;23.18;31.99
67555;HTU21D;54385;53.516;49.456;2023-04-27T10:01:44;24.71;30.20
67555;HTU21D;54385;53.516;49.456;2023-04-27T10:07:14;25.50;28.59
67555;HTU21D;54385;53.516;49.456;2023-04-27T10:09:44;25.81;27.97
67555;HTU21D;54385;53.516;49.456;2023-04-27T10:12:19;26.31;27.89
67555;HTU21D;54385;53.516;49.456;2023-04-27T10:14:54;27.00;25.54
67555;HTU21D;54385;53.516;49.456;2023-04-27T10:17:35;27.31;25.28
67555;HTU21D;54385;53.516;49.456;2023-04-27T10:20:06;27.47;25.00
67555;HTU21D;54385;53.516;49.456;2023-04-27T10:22:47;27.39;24.38
67555;HTU21D;54385;53.516;49.456;2023-04-27T10:25:20;27.40;24.55
67555;HTU21D;54385;53.516;49.456;2023-04-27T10:28:13;27.11;24.43
67555;HTU21D;54385;53.516;49.456;2023-04-27T10:30:44;27.16;24.82
67555;HTU21D;54385;53.516;49.456;2023-04-27T10:33:18;27.74;24.10
67555;HTU21D;54385;53.516;49.456;2023-04-27T10:35:55;27.99;23.27
67555;HTU21D;54385;53.516;49.456;2023-04-27T10:38:28;28.00;23.11
67555;HTU21D;54385;53.516;49.456;2023-04-27T10:41:00;28.04;23.19
67555;HTU21D;54385;53.516;49.456;2023-04-27T10:43:28;28.21;23.69
67555;HTU21D;54385;53.516;49.456;2023-04-27T10:46:12;28.23;22.76
67555;HTU21D;54385;53.516;49.456;2023-04-27T10:48:42;28.94;22.56
67555;HTU21D;54385;53.516;49.456;2023-04-27T10:51:13;29.05;22.40
67555;HTU21D;54385;53.516;49.456;2023-04-27T10:53:40;29.21;22.32
67555;HTU21D;54385;53.516;49.456;2023-04-27T10:56:07;29.31;22.36
67555;HTU21D;54385;53.516;49.456;2023-04-27T10:58:37;29.22;21.94
67555;HTU21D;54385;53.516;49.456;2023-04-27T11:01:03;29.01;22.59
67555;HTU21D;54385;53.516;49.456;2023-04-27T11:03:29;29.18;22.27
67555;HTU21D;54385;53.516;49.456;2023-04-27T11:06:02;29.02;21.54
67555;HTU21D;54385;53.516;49.456;2023-04-27T11:08:29;29.07;22.09
67555;HTU21D;54385;53.516;49.456;2023-04-27T11:10:57;29.04;21.60
67555;HTU21D;54385;53.516;49.456;2023-04-27T11:13:25;29.11;21.44
67555;HTU21D;54385;53.516;49.456;2023-04-27T11:15:55;29.06;21.58
67555;HTU21D;54385;53.516;49.456;2023-04-27T11:18:29;29.24;21.44
67555;HTU21D;54385;53.516;49.456;2023-04-27T11:21:14;29.72;21.01
67555;HTU21D;54385;53.516;49.456;2023-04-27T11:23:41;29.83;20.36
67555;HTU21D;54385;53.516;49.456;2023-04-27T11:26:15;29.48;20.73
67555;HTU21D;54385;53.516;49.456;2023-04-27T11:28:43;29.57;20.79
67555;HTU21D;54385;53.516;49.456;2023-04-27T11:31:10;29.48;21.04
67555;HTU21D;54385;53.516;49.456;2023-04-27T11:33:36;28.79;21.06
67555;HTU21D;54385;53.516;49.456;2023-04-27T11:36:15;28.82;21.15
67555;HTU21D;54385;53.516;49.456;2023-04-27T11:38:42;28.31;21.26
67555;HTU21D;54385;53.516;49.456;2023-04-27T11:41:09;27.94;21.47
67555;HTU21D;54385;53.516;49.456;2023-04-27T11:43:40;27.73;22.25
67555;HTU21D;54385;53.516;49.456;2023-04-27T11:46:08;28.33;21.36
67555;HTU21D;54385;53.516;49.456;2023-04-27T11:48:38;28.67;21.11
67555;HTU21D;54385;53.516;49.456;2023-04-27T11:51:08;29.07;20.71
67555;HTU21D;54385;53.516;49.456;2023-04-27T11:53:37;29.35;20.37
67555;HTU21D;54385;53.516;49.456;2023-04-27T11:56:05;29.83;19.76
67555;HTU21D;54385;53.516;49.456;2023-04-27T11:58:36;29.95;20.03
67555;HTU21D;54385;53.516;49.456;2023-04-27T12:01:06;30.21;19.76
67555;HTU21D;54385;53.516;49.456;2023-04-27T12:03:32;30.36;19.42
67555;HTU21D;54385;53.516;49.456;2023-04-27T12:05:59;30.55;19.22
67555;HTU21D;54385;53.516;49.456;2023-04-27T12:08:26;30.89;18.94
67555;HTU21D;54385;53.516;49.456;2023-04-27T12:10:52;30.83;19.15
67555;HTU21D;54385;53.516;49.456;2023-04-27T12:13:19;31.04;18.39
67555;HTU21D;54385;53.516;49.456;2023-04-27T12:15:45;30.85;18.92
67555;HTU21D;54385;53.516;49.456;2023-04-27T12:18:21;30.99;18.75
67555;HTU21D;54385;53.516;49.456;2023-04-27T12:20:47;31.49;18.09
67555;HTU21D;54385;53.516;49.456;2023-04-27T12:23:14;32.08;17.54
67555;HTU21D;54385;53.516;49.456;2023-04-27T12:25:41;32.42;16.95
67555;HTU21D;54385;53.516;49.456;2023-04-27T12:28:11;32.43;16.98
67555;HTU21D;54385;53.516;49.456;2023-04-27T12:30:46;32.61;17.05
67555;HTU21D;54385;53.516;49.456;2023-04-27T12:33:17;32.24;16.70
67555;HTU21D;54385;53.516;49.456;2023-04-27T12:35:44;32.23;16.58
67555;HTU21D;54385;53.516;49.456;2023-04-27T12:38:11;32.54;16.77
67555;HTU21D;54385;53.516;49.456;2023-04-27T12:40:37;32.82;15.70
67555;HTU21D;54385;53.516;49.456;2023-04-27T12:43:04;32.82;15.70
67555;HTU21D;54385;53.516;49.456;2023-04-27T12:45:30;32.38;15.96
67555;HTU21D;54385;53.516;49.456;2023-04-27T12:47:57;32.09;16.59
67555;HTU21D;54385;53.516;49.456;2023-04-27T12:50:25;32.12;16.40
67555;HTU21D;54385;53.516;49.456;2023-04-27T12:52:52;32.37;15.87
67555;HTU21D;54385;53.516;49.456;2023-04-27T12:55:20;32.32;15.43
67555;HTU21D;54385;53.516;49.456;2023-04-27T12:57:46;32.18;15.95
67555;HTU21D;54385;53.516;49.456;2023-04-27T13:00:14;32.18;15.95
67555;HTU21D;54385;53.516;49.456;2023-04-27T13:02:42;31.74;16.38
67555;HTU21D;54385;53.516;49.456;2023-04-27T13:05:10;31.86;15.90
67555;HTU21D;54385;53.516;49.456;2023-04-27T13:07:37;31.54;16.21
67555;HTU21D;54385;53.516;49.456;2023-04-27T13:10:04;31.16;16.67
67555;HTU21D;54385;53.516;49.456;2023-04-27T13:12:31;31.05;16.87
67555;HTU21D;54385;53.516;49.456;2023-04-27T13:15:06;31.25;16.67
67555;HTU21D;54385;53.516;49.456;2023-04-27T13:17:33;31.84;16.12
67555;HTU21D;54385;53.516;49.456;2023-04-27T13:20:00;31.43;16.16
67555;HTU21D;54385;53.516;49.456;2023-04-27T13:22:27;31.11;16.91
67555;HTU21D;54385;53.516;49.456;2023-04-27T13:24:54;31.23;17.01
67555;HTU21D;54385;53.516;49.456;2023-04-27T13:27:21;31.67;16.67
67555;HTU21D;54385;53.516;49.456;2023-04-27T13:29:50;31.90;16.07
67555;HTU21D;54385;53.516;49.456;2023-04-27T13:32:17;31.45;16.43
67555;HTU21D;54385;53.516;49.456;2023-04-27T13:34:44;30.98;17.41
67555;HTU21D;54385;53.516;49.456;2023-04-27T13:37:11;30.62;17.49
67555;HTU21D;54385;53.516;49.456;2023-04-27T13:39:40;30.11;17.90
67555;HTU21D;54385;53.516;49.456;2023-04-27T13:42:07;29.61;18.01
67555;HTU21D;54385;53.516;49.456;2023-04-27T13:44:34;29.75;18.02
67555;HTU21D;54385;53.516;49.456;2023-04-27T13:47:01;29.42;18.17
67555;HTU21D;54385;53.516;49.456;2023-04-27T13:49:30;28.89;18.83
67555;HTU21D;54385;53.516;49.456;2023-04-27T13:51:58;28.47;19.01
67555;HTU21D;54385;53.516;49.456;2023-04-27T13:54:27;28.24;19.46
67555;HTU21D;54385;53.516;49.456;2023-04-27T13:56:54;27.84;19.83
67555;HTU21D;54385;53.516;49.456;2023-04-27T13:59:21;27.52;21.39
67555;HTU21D;54385;53.516;49.456;2023-04-27T14:01:48;26.98;21.78
67555;HTU21D;54385;53.516;49.456;2023-04-27T14:04:15;26.41;22.42
67555;HTU21D;54385;53.516;49.456;2023-04-27T14:06:42;26.13;22.64
67555;HTU21D;54385;53.516;49.456;2023-04-27T14:09:09;25.89;23.01
67555;HTU21D;54385;53.516;49.456;2023-04-27T14:11:36;25.29;23.55
67555;HTU21D;54385;53.516;49.456;2023-04-27T14:14:03;25.04;24.15
67555;HTU21D;54385;53.516;49.456;2023-04-27T14:16:30;24.71;24.46
67555;HTU21D;54385;53.516;49.456;2023-04-27T14:18:57;24.39;25.11
67555;HTU21D;54385;53.516;49.456;2023-04-27T14:21:24;24.11;25.82
67555;HTU21D;54385;53.516;49.456;2023-04-27T14:23:51;23.87;26.24
67555;HTU21D;54385;53.516;49.456;2023-04-27T14:26:19;23.68;26.80
67555;HTU21D;54385;53.516;49.456;2023-04-27T14:28:46;23.59;27.13
67555;HTU21D;54385;53.516;49.456;2023-04-27T14:31:13;23.46;27.71
67555;HTU21D;54385;53.516;49.456;2023-04-27T14:33:39;23.10;28.21
67555;HTU21D;54385;53.516;49.456;2023-04-27T14:36:06;22.87;28.96
67555;HTU21D;54385;53.516;49.456;2023-04-27T14:38:33;22.73;29.50
67555;HTU21D;54385;53.516;49.456;2023-04-27T14:41:00;22.62;29.82
67555;HTU21D;54385;53.516;49.456;2023-04-27T14:43:27;22.54;29.92
67555;HTU21D;54385;53.516;49.456;2023-04-27T14:45:54;22.40;30.22
67555;HTU21D;54385;53.516;49.456;2023-04-27T14:48:21;22.14;30.58
67555;HTU21D;54385;53.516;49.456;2023-04-27T14:50:48;22.13;30.86
67555;HTU21D;54385;53.516;49.456;2023-04-27T14:53:14;22.10;31.29
67555;HTU21D;54385;53.516;49.456;2023-04-27T14:55:41;22.08;31.29
67555;HTU21D;54385;53.516;49.456;2023-04-27T14:58:11;21.95;31.51
67555;HTU21D;54385;53.516;49.456;2023-04-27T15:00:38;21.83;31.96
67555;HTU21D;54385;53.516;49.456;2023-04-27T15:03:05;21.79;32.21
67555;HTU21D;54385;53.516;49.456;2023-04-27T15:05:32;21.78;32.31
67555;HTU21D;54385;53.516;49.456;2023-04-27T15:07:58;21.66;32.69
67555;HTU21D;54385;53.516;49.456;2023-04-27T15:10:26;21.61;32.98
67555;HTU21D;54385;53.516;49.456;2023-04-27T15:12:52;21.54;33.63
67555;HTU21D;54385;53.516;49.456;2023-04-27T15:15:19;21.44;33.48
67555;HTU21D;54385;53.516;49.456;2023-04-27T15:17:46;21.31;33.92